Time;durP1;ratioP1;P1;durP2;ratioP2;P2;SDS_P1;SDS_P2;PMS_P1;PMS_P2;Temp;Humidity;BMP_temperature;BMP_pressure;BME280_temperature;BME280_humidity;BME280_pressure;Samples;Min_cycle;Max_cycle;Signal;HPM_P1;HPM_P2
2022/01/08 00:01:58;;;;;;;10.60;3.50;;;2.90;99.90;;;;;;7186409;32;20128;-63
2022/01/08 00:05:59;;;;;;;10.82;3.75;;;2.90;99.90;;;;;;7185153;32;20196;-62
2022/01/08 00:10:02;;;;;;;9.88;4.25;;;2.90;99.90;;;;;;7192848;32;20114;-62
2022/01/08 00:14:05;;;;;;;7.75;3.72;;;3.00;99.90;;;;;;7191240;32;20121;-63
2022/01/08 00:18:06;;;;;;;8.80;3.50;;;2.90;99.90;;;;;;7192392;32;20145;-63
2022/01/08 00:22:08;;;;;;;10.45;4.37;;;2.90;99.90;;;;;;7177911;32;20748;-62
2022/01/08 00:26:10;;;;;;;7.60;3.80;;;2.80;99.90;;;;;;7194764;32;20230;-63
2022/01/08 00:30:13;;;;;;;9.57;4.20;;;2.80;99.90;;;;;;7188499;32;20131;-63
2022/01/08 00:34:15;;;;;;;10.00;4.18;;;2.80;99.90;;;;;;7190299;32;20113;-62
2022/01/08 00:38:16;;;;;;;8.85;4.87;;;2.80;99.90;;;;;;7193829;32;20648;-62
2022/01/08 00:42:18;;;;;;;9.68;3.97;;;2.80;99.90;;;;;;7192950;32;20695;-62
2022/01/08 00:46:20;;;;;;;7.97;3.92;;;2.70;99.90;;;;;;7183251;32;20211;-63
2022/01/08 00:50:22;;;;;;;7.22;4.05;;;2.60;99.90;;;;;;7168019;32;20216;-62
2022/01/08 00:54:23;;;;;;;5.03;3.10;;;2.50;99.90;;;;;;7190834;32;20137;-63
2022/01/08 00:58:25;;;;;;;9.35;3.33;;;2.60;99.90;;;;;;7186896;32;20758;-63
2022/01/08 01:02:27;;;;;;;8.93;4.28;;;2.60;99.90;;;;;;7192286;32;20120;-63
2022/01/08 01:06:28;;;;;;;6.82;4.45;;;2.50;99.90;;;;;;7188904;32;20132;-62
2022/01/08 01:10:30;;;;;;;10.82;4.25;;;2.40;99.90;;;;;;7194586;32;20578;-63
2022/01/08 01:14:32;;;;;;;8.93;3.75;;;2.30;99.90;;;;;;7193509;32;20191;-62
2022/01/08 01:18:35;;;;;;;9.77;4.15;;;2.10;99.90;;;;;;7195379;32;20116;-62
2022/01/08 01:48:08;;;;;;;6.30;4.10;;;1.40;99.90;;;;;;7192810;33;20359;-62
2022/01/08 01:52:12;;;;;;;7.43;3.65;;;1.20;99.90;;;;;;7195408;33;20928;-62
2022/01/08 01:56:21;;;;;;;6.12;3.70;;;1.00;99.90;;;;;;7190393;33;20208;-63
2022/01/08 02:00:23;;;;;;;6.80;3.78;;;0.90;99.90;;;;;;7190810;32;20224;-62
2022/01/08 02:04:25;;;;;;;12.65;4.25;;;0.70;99.90;;;;;;7184704;33;20129;-62
2022/01/08 02:08:28;;;;;;;5.57;3.97;;;0.60;99.90;;;;;;7194639;32;20135;-62
2022/01/08 02:12:33;;;;;;;6.65;3.85;;;0.50;99.90;;;;;;7180728;33;20204;-62
2022/01/08 02:16:35;;;;;;;14.02;4.43;;;0.40;99.90;;;;;;7195368;32;20109;-62
2022/01/08 02:20:37;;;;;;;6.30;4.00;;;0.30;99.90;;;;;;7197088;32;20840;-62
2022/01/08 02:24:38;;;;;;;7.10;4.53;;;0.20;99.90;;;;;;7192452;32;20128;-62
2022/01/08 02:28:41;;;;;;;7.60;4.37;;;0.10;99.90;;;;;;7190542;32;20212;-61
2022/01/08 02:32:44;;;;;;;8.38;4.85;;;0.10;99.90;;;;;;7194553;32;20164;-63
2022/01/08 02:36:46;;;;;;;6.72;4.50;;;0.00;99.90;;;;;;7187804;32;20117;-63
2022/01/08 02:41:02;;;;;;;11.75;5.10;;;0.00;99.90;;;;;;7189253;32;20163;-62
2022/01/08 02:45:05;;;;;;;13.93;5.43;;;-0.10;99.90;;;;;;7196955;32;20113;-62
2022/01/08 02:49:07;;;;;;;10.90;4.90;;;-0.10;99.90;;;;;;7194982;32;20156;-62
2022/01/08 02:53:08;;;;;;;10.80;5.12;;;-0.20;99.90;;;;;;7196095;32;20251;-62
2022/01/08 02:57:10;;;;;;;7.53;4.75;;;-0.20;99.90;;;;;;7192903;32;20301;-62
2022/01/08 03:01:12;;;;;;;9.55;4.78;;;-0.30;99.90;;;;;;7193515;32;20396;-62
2022/01/08 03:05:15;;;;;;;8.57;5.12;;;-0.40;99.90;;;;;;7190360;32;20232;-62
2022/01/08 03:09:16;;;;;;;7.65;5.07;;;-0.40;99.90;;;;;;7193598;32;20136;-63
2022/01/08 03:13:18;;;;;;;9.50;5.65;;;-0.40;99.90;;;;;;7190805;32;20131;-62
2022/01/08 03:17:20;;;;;;;9.48;5.60;;;-0.50;99.90;;;;;;7190301;32;20822;-62
2022/01/08 03:21:22;;;;;;;9.38;5.72;;;-0.50;99.90;;;;;;7179636;32;20141;-61
2022/01/08 03:25:24;;;;;;;9.93;5.65;;;-0.50;99.90;;;;;;7179600;32;20151;-62
2022/01/08 03:29:26;;;;;;;10.52;5.22;;;-0.50;99.90;;;;;;7186936;32;20106;-62
2022/01/08 03:33:28;;;;;;;10.57;6.00;;;-0.50;99.90;;;;;;7190574;32;20141;-62
2022/01/08 03:37:30;;;;;;;12.93;6.10;;;-0.60;99.90;;;;;;7192627;32;20200;-62
2022/01/08 03:41:31;;;;;;;13.57;7.32;;;-0.60;99.90;;;;;;7187069;32;20114;-62
2022/01/08 03:45:33;;;;;;;12.55;6.72;;;-0.60;99.90;;;;;;7191193;32;20113;-62
2022/01/08 03:49:35;;;;;;;14.23;7.45;;;-0.50;99.90;;;;;;7189666;32;20132;-62
2022/01/08 03:53:36;;;;;;;15.60;9.32;;;-0.40;99.90;;;;;;7184440;32;20259;-62
2022/01/08 03:57:38;;;;;;;20.27;11.10;;;-0.10;99.90;;;;;;7184054;32;20786;-62
2022/01/08 04:01:40;;;;;;;18.08;10.45;;;0.10;99.90;;;;;;7185798;32;20113;-61
2022/01/08 04:05:41;;;;;;;22.10;11.82;;;0.30;99.90;;;;;;7194189;32;20136;-62
2022/01/08 04:09:45;;;;;;;26.05;13.48;;;0.40;99.90;;;;;;7190274;32;20774;-62
2022/01/08 04:13:46;;;;;;;28.60;14.23;;;0.60;99.90;;;;;;7195222;32;20228;-62
2022/01/08 04:17:49;;;;;;;25.08;13.07;;;0.60;99.90;;;;;;7192740;32;21140;-63
2022/01/08 04:22:07;;;;;;;23.42;13.30;;;0.60;99.90;;;;;;7195398;32;20136;-62
2022/01/08 04:26:08;;;;;;;;;;;0.60;99.90;;;;;;7193088;32;20690;-62
2022/01/08 04:30:10;;;;;;;25.62;13.30;;;0.60;99.90;;;;;;7195764;32;20601;-62
2022/01/08 04:34:12;;;;;;;26.60;13.60;;;0.50;99.90;;;;;;7193743;32;20263;-63
2022/01/08 04:38:14;;;;;;;24.05;13.80;;;0.40;99.90;;;;;;7167723;32;20458;-62
2022/01/08 04:42:15;;;;;;;23.05;13.32;;;0.40;99.90;;;;;;7187900;32;20136;-62
2022/01/08 04:46:17;;;;;;;23.38;13.20;;;0.40;99.90;;;;;;7194262;32;20156;-62
2022/01/08 04:50:19;;;;;;;25.20;13.10;;;0.40;99.90;;;;;;7191849;32;20690;-63
2022/01/08 04:54:21;;;;;;;29.02;14.60;;;0.40;99.90;;;;;;7192748;32;20211;-62
2022/01/08 04:58:23;;;;;;;23.52;14.27;;;0.30;99.90;;;;;;7192709;32;20449;-62
2022/01/08 05:02:24;;;;;;;25.90;13.80;;;0.30;99.90;;;;;;7176096;32;20113;-62
2022/01/08 05:06:26;;;;;;;21.37;14.02;;;0.20;99.90;;;;;;7180261;32;20248;-62
2022/01/08 05:10:33;;;;;;;29.50;14.55;;;0.20;99.90;;;;;;7191367;32;20121;-62
2022/01/08 05:14:35;;;;;;;;;;;0.10;99.90;;;;;;7188423;32;20136;-62
2022/01/08 05:18:38;;;;;;;28.52;14.15;;;0.10;99.90;;;;;;7187902;32;20152;-62
2022/01/08 05:26:51;;;;;;;29.80;15.55;;;0.00;99.90;;;;;;7185979;32;20221;-62
2022/01/08 05:30:52;;;;;;;25.25;14.85;;;-0.10;99.90;;;;;;7189551;32;20429;-62
2022/01/08 05:34:55;;;;;;;32.58;15.98;;;-0.10;99.90;;;;;;7183737;32;20151;-62
2022/01/08 05:38:56;;;;;;;26.62;14.07;;;-0.20;99.90;;;;;;7188840;33;20117;-62
2022/01/08 05:42:58;;;;;;;22.37;13.88;;;-0.20;99.90;;;;;;7191054;33;20113;-62
2022/01/08 05:47:00;;;;;;;26.50;14.82;;;-0.20;99.90;;;;;;7193560;33;20763;-62
2022/01/08 05:51:02;;;;;;;24.05;14.02;;;-0.20;99.90;;;;;;7189397;32;20129;-62
2022/01/08 05:55:04;;;;;;;24.05;13.93;;;-0.30;99.90;;;;;;7192499;32;20232;-62
2022/01/08 05:59:06;;;;;;;27.00;14.05;;;-0.30;99.90;;;;;;7177042;32;20113;-62
2022/01/08 06:03:09;;;;;;;23.35;13.43;;;-0.40;99.90;;;;;;7192489;32;20123;-62
2022/01/08 06:07:11;;;;;;;30.98;15.38;;;-0.50;99.90;;;;;;7194098;32;20214;-62
2022/01/08 06:11:12;;;;;;;26.77;15.63;;;-0.50;99.90;;;;;;7186024;32;20248;-62
2022/01/08 06:15:14;;;;;;;29.30;15.30;;;-0.60;99.90;;;;;;7192279;32;20113;-62
2022/01/08 06:19:17;;;;;;;30.92;15.18;;;-0.50;99.90;;;;;;7190416;32;20139;-61
2022/01/08 06:23:18;;;;;;;26.90;16.30;;;-0.50;99.90;;;;;;7191822;32;20109;-62
2022/01/08 06:27:20;;;;;;;28.35;14.70;;;-0.40;99.90;;;;;;7187808;32;20114;-62
2022/01/08 06:31:23;;;;;;;29.23;15.40;;;-0.20;99.90;;;;;;7196105;32;20217;-62
2022/01/08 06:35:25;;;;;;;28.90;15.00;;;-0.20;99.90;;;;;;7186265;32;20218;-62
2022/01/08 06:39:26;;;;;;;23.20;14.63;;;-0.10;99.90;;;;;;7197126;32;20141;-61
2022/01/08 06:43:28;;;;;;;25.75;14.57;;;0.10;99.90;;;;;;7191591;32;20140;-62
2022/01/08 06:47:29;;;;;;;18.33;12.65;;;0.30;99.90;;;;;;7181596;32;20549;-62
2022/01/08 06:51:31;;;;;;;27.17;14.20;;;0.50;99.90;;;;;;7187062;32;20207;-62
2022/01/08 06:55:33;;;;;;;28.48;12.93;;;0.60;99.90;;;;;;7193085;32;20118;-62
2022/01/08 06:59:34;;;;;;;25.17;12.85;;;0.70;99.90;;;;;;7191290;32;20227;-62
2022/01/08 07:03:36;;;;;;;26.17;12.75;;;0.70;99.90;;;;;;7176024;32;20730;-62
2022/01/08 07:07:38;;;;;;;25.10;12.45;;;0.80;99.90;;;;;;7193879;32;20152;-62
2022/01/08 07:11:40;;;;;;;24.12;13.45;;;0.90;99.90;;;;;;7196236;32;20145;-61
2022/01/08 07:15:42;;;;;;;23.77;13.10;;;0.90;99.90;;;;;;7196814;32;20226;-61
2022/01/08 07:19:43;;;;;;;25.02;13.48;;;1.00;99.90;;;;;;7200095;32;20259;-62
2022/01/08 07:23:45;;;;;;;29.85;13.62;;;1.10;99.90;;;;;;7193013;32;20145;-62
2022/01/08 07:27:47;;;;;;;23.58;13.43;;;1.00;99.90;;;;;;7192100;32;20125;-63
2022/01/08 07:31:53;;;;;;;23.55;13.10;;;1.00;99.90;;;;;;7191755;32;20113;-63
2022/01/08 07:35:55;;;;;;;33.00;14.98;;;1.00;99.90;;;;;;7189402;32;20117;-66
2022/01/08 07:39:56;;;;;;;25.77;14.68;;;1.00;99.90;;;;;;7184459;32;20133;-67
2022/01/08 07:43:58;;;;;;;29.37;14.93;;;1.00;99.90;;;;;;7192879;32;20176;-66
2022/01/08 07:48:00;;;;;;;25.25;14.18;;;1.10;99.90;;;;;;7193735;32;20510;-67
2022/01/08 07:52:02;;;;;;;26.85;13.60;;;1.20;99.90;;;;;;7188963;32;20315;-66
2022/01/08 07:56:04;;;;;;;29.25;14.07;;;1.30;99.90;;;;;;7191250;32;20932;-66
2022/01/08 08:00:08;;;;;;;28.45;14.85;;;1.40;99.90;;;;;;7187143;32;20230;-67
2022/01/08 08:04:09;;;;;;;26.25;16.27;;;1.50;99.90;;;;;;7192881;32;20137;-66
2022/01/08 08:08:16;;;;;;;28.55;17.23;;;1.40;99.90;;;;;;7188570;32;20262;-66
2022/01/08 08:12:18;;;;;;;33.20;16.65;;;1.50;99.90;;;;;;7195538;32;20109;-65
2022/01/08 08:16:20;;;;;;;30.52;16.90;;;1.60;99.90;;;;;;7190693;32;20114;-66
2022/01/08 08:20:21;;;;;;;33.92;19.42;;;1.70;99.90;;;;;;7194210;32;20568;-66
2022/01/08 08:24:23;;;;;;;29.65;17.30;;;1.70;99.90;;;;;;7181145;32;20191;-65
2022/01/08 08:28:25;;;;;;;32.63;16.87;;;1.70;99.90;;;;;;7189960;32;20635;-65
2022/01/08 08:32:26;;;;;;;30.55;15.93;;;1.80;99.90;;;;;;7189398;32;20491;-65
2022/01/08 08:36:28;;;;;;;32.53;16.17;;;1.80;99.90;;;;;;7188392;32;20152;-66
2022/01/08 08:40:30;;;;;;;29.58;14.90;;;1.80;99.90;;;;;;7192547;32;20106;-65
2022/01/08 08:44:32;;;;;;;30.45;16.05;;;1.90;99.90;;;;;;7185491;32;20271;-65
2022/01/08 08:48:34;;;;;;;34.22;15.00;;;1.90;99.90;;;;;;7194697;32;20157;-65
2022/01/08 08:52:36;;;;;;;33.20;15.35;;;2.00;99.90;;;;;;7194382;32;20131;-65
2022/01/08 08:56:38;;;;;;;25.17;13.55;;;2.10;99.90;;;;;;7195878;32;20118;-65
2022/01/08 09:00:40;;;;;;;25.08;13.10;;;2.20;99.90;;;;;;7189352;32;20157;-66
2022/01/08 09:04:42;;;;;;;22.20;10.77;;;2.20;99.90;;;;;;7187515;32;20227;-66
2022/01/08 09:08:45;;;;;;;25.62;12.63;;;2.30;99.90;;;;;;7193568;32;20691;-65
2022/01/08 09:12:47;;;;;;;21.08;11.65;;;2.30;99.90;;;;;;7194197;32;20814;-66
2022/01/08 09:16:52;;;;;;;20.30;10.43;;;2.40;99.90;;;;;;7196813;32;20132;-64
2022/01/08 09:20:54;;;;;;;20.83;11.90;;;2.40;99.90;;;;;;7189583;32;20124;-58
2022/01/08 09:24:56;;;;;;;31.33;12.00;;;2.40;99.90;;;;;;7184888;32;20133;-65
2022/01/08 09:28:58;;;;;;;21.70;11.57;;;2.50;99.90;;;;;;7190211;32;20133;-65
2022/01/08 09:32:59;;;;;;;24.10;12.10;;;2.60;99.90;;;;;;7187810;32;20109;-65
2022/01/08 09:37:01;;;;;;;24.87;12.27;;;2.60;99.90;;;;;;7190451;32;20132;-65
2022/01/08 09:41:03;;;;;;;26.52;12.32;;;2.60;99.90;;;;;;7179265;33;20721;-65
2022/01/08 09:45:05;;;;;;;22.62;12.02;;;2.60;99.90;;;;;;7193951;33;20619;-64
2022/01/08 09:49:06;;;;;;;27.08;12.75;;;2.60;99.90;;;;;;7189510;33;20209;-64
2022/01/08 09:53:09;;;;;;;31.65;14.15;;;2.80;99.90;;;;;;7190451;32;20224;-65
2022/01/08 09:57:10;;;;;;;23.62;10.40;;;2.90;99.90;;;;;;7190413;33;20706;-64
2022/01/08 10:01:29;;;;;;;30.30;12.57;;;2.90;99.90;;;;;;7193265;32;20216;-64
2022/01/08 10:05:43;;;;;;;25.37;11.82;;;3.00;99.90;;;;;;7190568;32;20275;-66
2022/01/08 10:10:12;;;;;;;24.23;11.60;;;2.90;99.90;;;;;;7193293;33;20240;-66
2022/01/08 10:14:27;;;;;;;27.92;11.52;;;2.90;99.90;;;;;;7183565;32;20197;-66
2022/01/08 10:18:32;;;;;;;20.00;12.05;;;3.00;99.90;;;;;;7188014;33;20201;-67
2022/01/08 10:22:34;;;;;;;23.65;12.93;;;3.00;99.90;;;;;;7195175;33;20117;-67
2022/01/08 10:26:40;;;;;;;27.67;11.77;;;3.00;99.90;;;;;;7197246;33;20105;-67
2022/01/08 10:30:42;;;;;;;21.55;11.27;;;3.00;99.90;;;;;;7194581;33;20235;-67
2022/01/08 10:34:48;;;;;;;30.48;12.00;;;3.20;99.90;;;;;;7188764;32;20113;-65
2022/01/08 10:38:52;;;;;;;25.27;11.17;;;3.20;99.90;;;;;;7194977;32;20458;-66
2022/01/08 10:42:53;;;;;;;25.00;10.98;;;3.30;99.90;;;;;;7195859;32;20145;-66
2022/01/08 10:47:06;;;;;;;22.83;11.10;;;3.40;99.90;;;;;;7183021;32;20443;-67
2022/01/08 10:51:20;;;;;;;23.15;11.23;;;3.40;99.90;;;;;;7196358;32;20234;-66
2022/01/08 10:55:32;;;;;;;20.33;10.27;;;3.60;99.90;;;;;;7198470;32;20132;-66
2022/01/08 10:59:36;;;;;;;19.67;9.60;;;3.80;99.90;;;;;;7197039;32;20113;-66
2022/01/08 11:03:39;;;;;;;20.33;8.75;;;3.80;99.90;;;;;;7181182;32;20118;-66
2022/01/08 11:07:42;;;;;;;17.92;9.10;;;4.00;99.90;;;;;;7192169;32;20175;-66
2022/01/08 11:11:44;;;;;;;13.82;8.40;;;4.10;99.90;;;;;;7197706;32;20884;-65
2022/01/08 11:15:51;;;;;;;12.95;5.60;;;4.00;99.90;;;;;;7189485;32;20603;-66
2022/01/08 11:19:59;;;;;;;10.57;5.87;;;4.00;99.90;;;;;;7176747;32;20271;-67
2022/01/08 11:24:01;;;;;;;14.32;6.35;;;4.00;99.90;;;;;;7184912;32;20167;-66
2022/01/08 11:28:11;;;;;;;14.23;6.82;;;4.10;99.90;;;;;;7199842;32;20212;-65
2022/01/08 11:32:15;;;;;;;15.25;6.30;;;4.30;99.90;;;;;;7188386;32;20220;-65
2022/01/08 11:36:17;;;;;;;14.15;5.68;;;4.40;99.90;;;;;;7198877;32;20132;-65
2022/01/08 11:40:22;;;;;;;9.05;4.50;;;4.20;99.90;;;;;;7195211;32;20146;-59
2022/01/08 11:44:25;;;;;;;11.82;4.95;;;4.30;99.90;;;;;;7199764;32;20465;-58
2022/01/08 11:48:38;;;;;;;9.20;4.47;;;4.40;99.90;;;;;;7192367;32;20112;-66
2022/01/08 11:52:40;;;;;;;9.88;4.60;;;4.30;99.90;;;;;;7181418;32;20718;-66
2022/01/08 11:56:42;;;;;;;9.98;3.97;;;4.40;99.90;;;;;;7189453;32;20153;-66
2022/01/08 12:01:01;;;;;;;8.80;4.05;;;4.20;99.90;;;;;;7195197;32;20149;-66
2022/01/08 12:05:03;;;;;;;9.30;3.33;;;4.10;99.90;;;;;;7199323;32;20673;-66
2022/01/08 12:09:08;;;;;;;8.80;3.75;;;4.20;99.90;;;;;;7199750;32;20136;-66
2022/01/08 12:13:09;;;;;;;7.62;3.40;;;4.20;99.90;;;;;;7194150;32;20106;-66
2022/01/08 12:17:18;;;;;;;13.25;5.25;;;4.10;99.90;;;;;;7191123;32;20217;-67
2022/01/08 12:21:30;;;;;;;11.00;3.20;;;4.00;99.90;;;;;;7175655;32;20167;-66
2022/01/08 12:25:40;;;;;;;9.13;3.12;;;4.10;99.90;;;;;;7168477;32;20121;-66
2022/01/08 12:29:42;;;;;;;8.60;3.08;;;4.20;99.90;;;;;;7188471;32;20513;-67
2022/01/08 12:34:07;;;;;;;7.28;2.87;;;4.40;99.90;;;;;;7187195;32;20225;-67
2022/01/08 12:38:32;;;;;;;7.03;2.22;;;4.50;99.90;;;;;;7191463;32;20632;-66
2022/01/08 12:42:42;;;;;;;9.10;2.97;;;4.40;99.90;;;;;;7188945;32;20106;-66
2022/01/08 12:46:44;;;;;;;8.77;2.58;;;4.50;99.90;;;;;;7192854;32;20223;-66
2022/01/08 12:50:46;;;;;;;9.82;2.83;;;4.50;99.90;;;;;;7188553;32;20110;-66
2022/01/08 12:54:52;;;;;;;9.50;3.05;;;4.50;99.90;;;;;;7195799;32;20113;-66
2022/01/08 12:58:54;;;;;;;9.70;2.37;;;4.60;99.90;;;;;;7193490;32;20292;-66
2022/01/08 13:03:01;;;;;;;6.62;2.03;;;4.70;99.90;;;;;;7188133;32;20341;-66
2022/01/08 13:07:03;;;;;;;5.87;2.17;;;4.60;99.90;;;;;;7191648;32;20255;-66
2022/01/08 13:11:07;;;;;;;6.30;2.15;;;4.50;99.90;;;;;;7192248;32;20117;-66
2022/01/08 13:15:09;;;;;;;9.27;2.50;;;4.40;99.90;;;;;;7190138;32;20412;-66
2022/01/08 13:19:31;;;;;;;7.62;1.95;;;4.40;99.90;;;;;;7186017;32;20109;-65
2022/01/08 13:23:44;;;;;;;7.97;2.30;;;4.30;99.90;;;;;;7184727;32;20761;-65
2022/01/08 13:27:49;;;;;;;8.35;2.15;;;4.10;99.90;;;;;;7185927;32;20519;-65
2022/01/08 13:31:57;;;;;;;5.43;1.80;;;4.20;99.90;;;;;;7194035;32;20109;-65
2022/01/08 13:36:00;;;;;;;4.07;2.10;;;4.20;99.90;;;;;;7190166;32;20129;-66
2022/01/08 13:40:05;;;;;;;7.62;1.98;;;4.20;99.90;;;;;;7188800;32;20164;-59
2022/01/08 13:44:07;;;;;;;4.50;1.90;;;4.30;99.90;;;;;;7179102;33;20105;-65
2022/01/08 13:48:10;;;;;;;5.47;2.28;;;4.30;99.90;;;;;;7189461;33;20412;-66
2022/01/08 13:52:16;;;;;;;3.70;1.75;;;4.10;99.90;;;;;;7192068;32;20098;-66
2022/01/08 13:56:23;;;;;;;5.80;1.73;;;4.00;99.90;;;;;;7191336;33;20497;-68
2022/01/08 14:00:28;;;;;;;6.03;2.28;;;3.80;99.90;;;;;;7178116;33;20605;-67
2022/01/08 14:04:31;;;;;;;4.40;2.20;;;3.70;99.90;;;;;;7189635;32;20589;-66
2022/01/08 14:08:33;;;;;;;8.52;1.98;;;3.60;99.90;;;;;;7190859;32;20200;-63
2022/01/08 14:12:35;;;;;;;4.03;1.67;;;3.60;99.90;;;;;;7196731;32;20334;-64
2022/01/08 14:16:39;;;;;;;7.28;2.03;;;3.40;99.90;;;;;;7195821;32;20101;-64
2022/01/08 14:20:44;;;;;;;5.10;1.73;;;3.50;99.90;;;;;;7192735;32;20114;-64
2022/01/08 14:24:45;;;;;;;3.22;1.92;;;3.50;99.90;;;;;;7194931;32;20163;-65
2022/01/08 14:29:13;;;;;;;9.05;2.62;;;3.50;99.90;;;;;;7194789;32;20113;-65
2022/01/08 14:33:17;;;;;;;7.40;2.67;;;3.40;99.90;;;;;;7190860;32;20192;-65
2022/01/08 14:37:30;;;;;;;5.53;2.10;;;3.20;99.90;;;;;;7194455;32;20109;-65
2022/01/08 14:41:34;;;;;;;6.45;2.47;;;3.10;99.90;;;;;;7198700;32;20603;-65
2022/01/08 14:45:38;;;;;;;4.70;1.87;;;3.00;99.90;;;;;;7187662;32;20110;-65
2022/01/08 14:49:39;;;;;;;2.62;1.52;;;2.80;99.90;;;;;;7199287;32;20191;-65
2022/01/08 14:53:41;;;;;;;8.77;2.35;;;2.80;99.90;;;;;;7198245;32;20121;-66
2022/01/08 14:57:43;;;;;;;4.22;1.98;;;2.70;99.90;;;;;;7185607;32;20393;-64
2022/01/08 15:01:44;;;;;;;6.53;2.05;;;2.60;99.90;;;;;;7189053;32;20654;-65
2022/01/08 15:05:46;;;;;;;4.05;2.25;;;2.60;99.90;;;;;;7190924;32;20112;-66
2022/01/08 15:09:48;;;;;;;6.53;3.50;;;2.60;99.90;;;;;;7189871;32;20125;-64
2022/01/08 15:13:49;;;;;;;6.82;3.53;;;2.40;99.90;;;;;;7193585;32;20145;-65
2022/01/08 15:17:53;;;;;;;8.00;3.03;;;2.40;99.90;;;;;;7193810;32;20105;-64
2022/01/08 15:22:04;;;;;;;5.25;3.67;;;2.30;99.90;;;;;;7191931;32;20525;-64
2022/01/08 15:26:06;;;;;;;7.05;3.62;;;2.30;99.90;;;;;;7186368;32;20129;-64
2022/01/08 15:30:08;;;;;;;7.50;3.95;;;2.10;99.90;;;;;;7195010;32;20101;-66
2022/01/08 15:34:10;;;;;;;5.40;3.33;;;2.20;99.90;;;;;;7191861;32;20101;-64
2022/01/08 15:38:12;;;;;;;4.87;3.10;;;2.20;99.90;;;;;;7187960;32;20519;-65
2022/01/08 15:42:14;;;;;;;5.90;2.95;;;2.10;99.90;;;;;;7187567;32;20232;-65
2022/01/08 15:46:16;;;;;;;7.00;3.12;;;2.00;99.90;;;;;;7169435;32;20113;-70
2022/01/08 15:50:18;;;;;;;4.07;2.60;;;2.00;99.90;;;;;;7177060;32;20454;-69
2022/01/08 15:54:20;;;;;;;6.75;2.55;;;2.00;99.90;;;;;;7168417;32;20114;-63
2022/01/08 15:58:21;;;;;;;5.93;2.50;;;2.10;99.90;;;;;;7187303;32;20138;-62
2022/01/08 16:02:23;;;;;;;4.28;2.20;;;2.00;99.90;;;;;;7197168;32;20312;-64
2022/01/08 16:06:26;;;;;;;5.70;2.72;;;2.00;99.90;;;;;;7179619;32;20216;-66
2022/01/08 16:10:27;;;;;;;4.57;2.10;;;2.00;99.90;;;;;;7188640;32;20479;-63
2022/01/08 16:14:29;;;;;;;5.25;2.10;;;2.10;99.90;;;;;;7187550;32;20212;-63
2022/01/08 16:18:31;;;;;;;4.37;1.87;;;2.10;99.90;;;;;;7190998;32;20454;-63
2022/01/08 16:22:34;;;;;;;3.33;2.12;;;2.10;99.90;;;;;;7187635;32;20390;-65
2022/01/08 16:26:35;;;;;;;3.92;2.15;;;2.20;99.90;;;;;;7180014;32;20101;-66
2022/01/08 16:30:40;;;;;;;3.70;1.85;;;2.20;99.90;;;;;;7168911;32;20195;-64
2022/01/08 16:34:42;;;;;;;6.95;2.20;;;2.20;99.90;;;;;;7190960;32;20116;-64
2022/01/08 16:38:44;;;;;;;7.55;2.05;;;2.20;99.90;;;;;;7190411;32;20151;-63
2022/01/08 16:42:46;;;;;;;4.45;2.25;;;2.20;99.90;;;;;;7180263;32;20144;-63
2022/01/08 16:46:48;;;;;;;3.70;1.85;;;2.30;99.90;;;;;;7181690;32;20503;-63
2022/01/08 16:50:50;;;;;;;3.50;1.80;;;2.40;99.90;;;;;;7178684;32;20346;-63
2022/01/08 16:54:53;;;;;;;3.42;1.87;;;2.40;99.90;;;;;;7182738;32;20687;-62
2022/01/08 16:58:55;;;;;;;2.67;1.73;;;2.40;99.90;;;;;;7190915;32;20524;-64
2022/01/08 17:02:57;;;;;;;4.37;1.75;;;2.50;99.90;;;;;;7165208;32;20851;-58
2022/01/08 17:06:59;;;;;;;2.58;1.70;;;2.70;99.90;;;;;;7179409;32;20204;-58
2022/01/08 17:11:01;;;;;;;3.97;1.67;;;2.90;99.90;;;;;;7172721;32;20151;-64
2022/01/08 17:15:17;;;;;;;4.43;1.80;;;3.20;99.90;;;;;;7187816;32;20461;-64
2022/01/08 17:19:19;;;;;;;4.37;2.00;;;2.90;99.90;;;;;;7188174;32;20118;-64
2022/01/08 17:23:21;;;;;;;4.50;2.00;;;2.90;99.90;;;;;;7188443;32;20220;-65
2022/01/08 17:27:22;;;;;;;3.78;1.62;;;2.80;99.90;;;;;;7192135;32;20119;-63
2022/01/08 17:31:24;;;;;;;5.28;1.95;;;2.80;99.90;;;;;;7225075;27;20120;-77
2022/01/08 17:35:26;;;;;;;4.43;2.00;;;2.80;99.90;;;;;;7189804;32;20833;-75
2022/01/08 17:39:28;;;;;;;6.15;2.05;;;2.80;99.90;;;;;;7189588;32;20211;-75
2022/01/08 17:43:30;;;;;;;3.70;1.70;;;2.70;99.90;;;;;;7186685;32;20155;-76
2022/01/08 17:47:32;;;;;;;3.87;2.00;;;2.80;99.90;;;;;;7197195;32;20223;-75
2022/01/08 17:51:39;;;;;;;4.05;1.85;;;2.80;99.90;;;;;;7194332;32;20117;-76
2022/01/08 17:55:40;;;;;;;4.13;2.00;;;2.70;99.90;;;;;;7198310;32;20183;-76
2022/01/08 17:59:42;;;;;;;5.97;1.90;;;2.80;99.90;;;;;;7199651;32;20663;-76
2022/01/08 18:03:45;;;;;;;3.78;1.80;;;2.70;99.90;;;;;;7196533;32;20109;-75
2022/01/08 18:07:47;;;;;;;3.22;1.73;;;2.70;99.90;;;;;;7198607;32;20151;-76
2022/01/08 18:11:50;;;;;;;4.40;1.65;;;2.70;99.90;;;;;;7199021;32;20185;-75
2022/01/08 18:15:52;;;;;;;3.92;1.85;;;2.70;99.90;;;;;;7202117;32;20127;-76
2022/01/08 18:19:54;;;;;;;3.72;1.45;;;2.60;99.90;;;;;;7201961;32;20769;-76
2022/01/08 18:23:57;;;;;;;4.03;1.40;;;2.70;99.90;;;;;;7196421;32;20821;-76
2022/01/08 18:27:59;;;;;;;3.35;1.62;;;2.70;99.90;;;;;;7189994;32;20614;-75
2022/01/08 18:32:04;;;;;;;3.25;2.03;;;2.70;99.90;;;;;;7199388;32;20143;-75
2022/01/08 18:36:06;;;;;;;4.00;1.98;;;2.70;99.90;;;;;;7200018;32;20170;-76
2022/01/08 18:40:12;;;;;;;3.97;1.85;;;2.70;99.90;;;;;;7200743;32;20991;-76
2022/01/08 18:44:14;;;;;;;8.00;2.33;;;2.80;99.90;;;;;;7228474;32;20137;-77
2022/01/08 18:48:16;;;;;;;2.75;2.17;;;2.80;99.90;;;;;;7192616;32;20252;-76
2022/01/08 18:52:18;;;;;;;2.25;1.80;;;2.80;99.90;;;;;;7193182;32;20121;-75
2022/01/08 18:56:20;;;;;;;7.62;2.30;;;2.80;99.90;;;;;;7208160;32;20672;-76
2022/01/08 19:00:40;;;;;;;4.35;2.47;;;2.80;99.90;;;;;;7198082;32;20132;-77
2022/01/08 19:04:51;;;;;;;2.72;2.15;;;2.80;99.90;;;;;;7195997;32;20124;-77
2022/01/08 19:08:52;;;;;;;3.35;2.30;;;2.80;99.90;;;;;;7185536;32;20270;-77
2022/01/08 19:12:54;;;;;;;5.43;2.70;;;2.90;99.90;;;;;;7199979;32;20219;-76
2022/01/08 19:16:56;;;;;;;6.03;2.70;;;2.90;99.90;;;;;;7205948;32;20167;-76
2022/01/08 19:20:58;;;;;;;4.78;2.45;;;2.90;99.90;;;;;;7191352;32;20125;-76
2022/01/08 19:25:01;;;;;;;3.42;2.53;;;2.90;99.90;;;;;;7213255;32;20136;-76
2022/01/08 19:29:04;;;;;;;3.45;2.33;;;2.90;99.90;;;;;;7191665;32;20181;-77
2022/01/08 19:33:06;;;;;;;2.70;1.92;;;3.00;99.90;;;;;;7185522;32;20147;-76
2022/01/08 19:37:10;;;;;;;3.50;2.50;;;3.00;99.90;;;;;;7210374;32;20758;-77
2022/01/08 19:41:11;;;;;;;2.65;1.80;;;3.00;99.90;;;;;;7205358;32;20191;-77
2022/01/08 19:45:13;;;;;;;4.00;2.12;;;3.00;99.90;;;;;;7195283;32;20204;-76
2022/01/08 19:49:15;;;;;;;4.45;2.55;;;3.00;99.90;;;;;;7205051;32;20148;-76
2022/01/08 19:53:17;;;;;;;4.15;2.35;;;3.00;99.90;;;;;;7186397;32;20136;-76
2022/01/08 19:57:21;;;;;;;3.60;2.30;;;3.00;99.90;;;;;;7188106;32;20213;-76
2022/01/08 20:01:23;;;;;;;2.80;2.17;;;3.00;99.90;;;;;;7196875;32;20172;-77
2022/01/08 20:05:25;;;;;;;4.25;2.17;;;3.10;99.90;;;;;;7190287;32;20136;-77
2022/01/08 20:09:31;;;;;;;3.58;1.87;;;3.00;99.90;;;;;;7182642;32;20143;-76
2022/01/08 20:13:33;;;;;;;2.95;2.00;;;3.10;99.90;;;;;;7196327;32;20779;-76
2022/01/08 20:17:35;;;;;;;4.85;2.05;;;3.10;99.90;;;;;;7189234;32;20175;-76
2022/01/08 20:21:37;;;;;;;3.05;1.90;;;3.10;99.90;;;;;;7189578;32;20125;-77
2022/01/08 20:25:39;;;;;;;3.37;1.95;;;3.10;99.90;;;;;;7185143;32;20128;-77
2022/01/08 20:29:41;;;;;;;4.55;2.12;;;3.10;99.90;;;;;;7190361;32;20145;-77
2022/01/08 20:33:43;;;;;;;2.87;1.80;;;3.10;99.90;;;;;;7195244;32;20208;-76
2022/01/08 20:37:45;;;;;;;2.92;1.73;;;3.20;99.90;;;;;;7187982;32;20144;-76
2022/01/08 20:41:48;;;;;;;2.70;1.90;;;3.20;99.90;;;;;;7195233;32;20183;-77
2022/01/08 20:45:49;;;;;;;3.85;1.83;;;3.20;99.90;;;;;;7189972;32;20632;-76
2022/01/08 20:49:51;;;;;;;1.60;1.25;;;3.20;99.90;;;;;;7204014;32;20188;-77
2022/01/08 20:53:53;;;;;;;2.58;1.60;;;3.40;99.90;;;;;;7172071;32;20200;-77
2022/01/08 20:57:56;;;;;;;3.17;1.52;;;3.30;99.90;;;;;;7184830;32;20177;-76
2022/01/08 21:01:58;;;;;;;3.17;1.30;;;3.30;99.90;;;;;;7185776;32;20137;-76
2022/01/08 21:06:00;;;;;;;2.28;1.45;;;3.30;99.90;;;;;;7182298;32;20814;-76
2022/01/08 21:10:03;;;;;;;2.75;1.27;;;3.40;99.90;;;;;;7188106;32;20140;-76
2022/01/08 21:14:05;;;;;;;2.72;1.33;;;3.40;99.90;;;;;;7182070;32;20135;-77
2022/01/08 21:18:07;;;;;;;5.65;1.50;;;3.30;99.90;;;;;;7179178;32;20113;-77
2022/01/08 21:22:09;;;;;;;3.20;1.75;;;3.40;99.90;;;;;;7173336;32;20163;-77
2022/01/08 21:26:11;;;;;;;2.37;1.40;;;3.40;99.90;;;;;;7173417;32;20528;-76
2022/01/08 21:30:16;;;;;;;1.80;1.30;;;3.40;99.90;;;;;;7193122;32;20881;-77
2022/01/08 21:34:21;;;;;;;1.60;1.27;;;3.40;99.90;;;;;;7193804;32;20113;-76
2022/01/08 21:38:26;;;;;;;2.45;1.30;;;3.40;99.90;;;;;;7200235;32;20172;-76